createdAt,value
2023-05-10T00:02:05.308Z,19.58
2023-05-10T00:04:32.150Z,19.69
2023-05-10T00:06:59.078Z,19.76
2023-05-10T00:09:25.939Z,19.66
2023-05-10T00:11:52.718Z,19.54
2023-05-10T00:14:19.789Z,19.58
2023-05-10T00:16:46.611Z,19.64
2023-05-10T00:19:13.519Z,19.69
2023-05-10T00:21:40.402Z,19.58
2023-05-10T00:24:07.269Z,19.64
2023-05-10T00:26:34.096Z,19.64
2023-05-10T00:29:01.550Z,19.76
2023-05-10T00:31:28.392Z,19.78
2023-05-10T00:33:55.779Z,19.86
2023-05-10T00:36:22.591Z,19.90
2023-05-10T00:38:49.330Z,19.95
2023-05-10T00:41:16.722Z,20.03
2023-05-10T00:43:44.539Z,20.04
2023-05-10T00:46:11.992Z,20.02
2023-05-10T00:48:39.193Z,20.10
2023-05-10T00:51:06.140Z,20.15
2023-05-10T00:53:33.904Z,20.13
2023-05-10T00:56:00.856Z,20.17
2023-05-10T00:58:29.374Z,20.16
2023-05-10T01:00:59.822Z,20.10
2023-05-10T01:03:40.828Z,20.05
2023-05-10T01:06:16.905Z,20.03
2023-05-10T01:08:43.873Z,20.00
2023-05-10T01:11:10.888Z,19.87
2023-05-10T01:13:40.488Z,19.74
2023-05-10T01:16:08.092Z,19.76
2023-05-10T01:18:41.620Z,19.59
2023-05-10T01:24:23.587Z,19.48
2023-05-10T01:27:14.530Z,19.32
2023-05-10T01:30:21.892Z,19.24
2023-05-10T01:32:57.763Z,19.21
2023-05-10T01:35:35.707Z,19.19
2023-05-10T01:38:38.344Z,19.11
2023-05-10T01:41:07.962Z,19.00
2023-05-10T01:43:58.473Z,19.04
2023-05-10T01:46:34.153Z,19.07
2023-05-10T01:49:03.479Z,18.97
2023-05-10T01:51:40.755Z,18.98
2023-05-10T01:54:11.846Z,19.05
2023-05-10T01:56:41.240Z,19.05
2023-05-10T01:59:16.449Z,19.04
2023-05-10T02:01:45.123Z,18.97
2023-05-10T02:04:14.659Z,19.13
2023-05-10T02:06:43.672Z,19.19
2023-05-10T02:09:12.959Z,19.15
2023-05-10T02:11:40.707Z,19.14
2023-05-10T02:14:09.930Z,19.12
2023-05-10T02:16:39.144Z,19.12
2023-05-10T02:19:07.355Z,19.15
2023-05-10T02:21:35.479Z,19.16
2023-05-10T02:24:05.265Z,19.22
2023-05-10T02:26:36.290Z,19.28
2023-05-10T02:29:04.859Z,19.39
2023-05-10T02:31:34.025Z,19.30
2023-05-10T02:34:02.589Z,19.40
2023-05-10T02:36:30.767Z,19.46
2023-05-10T02:38:59.570Z,19.32
2023-05-10T02:41:27.484Z,19.34
2023-05-10T02:44:00.308Z,19.38
2023-05-10T02:46:27.200Z,19.42
2023-05-10T02:48:54.088Z,19.45
2023-05-10T02:51:25.700Z,19.36
2023-05-10T02:53:56.215Z,19.43
2023-05-10T02:56:52.244Z,19.22
2023-05-10T02:59:19.390Z,19.29
2023-05-10T03:01:46.276Z,19.28
2023-05-10T03:04:13.316Z,19.29
2023-05-10T03:06:40.486Z,19.29
2023-05-10T03:09:08.845Z,19.27
2023-05-10T03:11:50.567Z,19.30
2023-05-10T03:14:35.737Z,19.29
2023-05-10T03:17:10.095Z,19.31
2023-05-10T03:19:54.130Z,19.35
2023-05-10T03:22:38.276Z,19.27
2023-05-10T03:25:09.379Z,19.37
2023-05-10T03:27:37.771Z,19.47
2023-05-10T03:30:07.294Z,19.50
2023-05-10T03:32:35.805Z,19.61
2023-05-10T03:35:10.542Z,19.58
2023-05-10T03:37:37.841Z,19.55
2023-05-10T03:40:06.417Z,19.67
2023-05-10T03:42:35.436Z,19.63
2023-05-10T03:45:02.299Z,19.72
2023-05-10T03:47:30.779Z,19.78
2023-05-10T03:49:58.461Z,19.79
2023-05-10T03:52:25.290Z,19.83
2023-05-10T03:54:52.157Z,19.89
2023-05-10T03:57:18.958Z,19.84
2023-05-10T03:59:46.357Z,19.86
2023-05-10T04:02:13.281Z,19.82
2023-05-10T04:04:40.132Z,19.85
2023-05-10T04:07:06.961Z,19.89
2023-05-10T04:09:34.572Z,19.82
2023-05-10T04:12:03.402Z,19.84
2023-05-10T04:14:30.353Z,19.85
2023-05-10T04:16:57.078Z,19.88
2023-05-10T04:19:24.390Z,19.90
2023-05-10T04:21:51.227Z,19.94
2023-05-10T04:24:18.029Z,19.96
2023-05-10T04:26:44.840Z,19.98
2023-05-10T04:29:11.563Z,20.03
2023-05-10T04:31:38.402Z,19.86
2023-05-10T04:34:05.360Z,19.86
2023-05-10T04:36:33.579Z,19.80
2023-05-10T04:39:00.416Z,19.87
2023-05-10T04:41:27.296Z,19.90
2023-05-10T04:43:54.033Z,19.92
2023-05-10T04:46:20.827Z,19.96
2023-05-10T04:48:47.655Z,19.86
2023-05-10T04:51:14.608Z,19.87
2023-05-10T04:53:43.014Z,19.81
2023-05-10T04:56:11.483Z,19.83
2023-05-10T04:58:38.354Z,19.73
2023-05-10T05:01:10.442Z,19.79
2023-05-10T05:03:38.172Z,19.76
2023-05-10T05:06:05.184Z,19.66
2023-05-10T05:08:32.270Z,19.60
2023-05-10T05:11:00.414Z,19.62
2023-05-10T05:13:27.285Z,19.59
2023-05-10T05:15:54.614Z,19.62
2023-05-10T05:18:21.546Z,19.60
2023-05-10T05:20:48.249Z,19.59
2023-05-10T05:23:16.361Z,19.52
2023-05-10T05:25:43.269Z,19.64
2023-05-10T05:28:10.016Z,19.67
2023-05-10T05:30:36.853Z,19.60
2023-05-10T05:33:04.056Z,19.74
2023-05-10T05:35:30.959Z,19.77
2023-05-10T05:37:57.712Z,19.68
2023-05-10T05:40:24.507Z,19.79
2023-05-10T05:42:51.299Z,19.69
2023-05-10T05:45:18.357Z,19.76
2023-05-10T05:47:45.596Z,19.65
2023-05-10T05:50:12.521Z,19.66
2023-05-10T05:52:39.383Z,19.71
2023-05-10T05:55:06.412Z,19.71
2023-05-10T05:57:33.120Z,19.77
2023-05-10T06:00:00.581Z,19.62
2023-05-10T06:02:27.555Z,19.73
2023-05-10T06:04:54.343Z,19.61
2023-05-10T06:07:21.307Z,19.68
2023-05-10T06:09:48.093Z,19.73
2023-05-10T06:12:14.880Z,19.60
2023-05-10T06:14:41.763Z,19.50
2023-05-10T06:17:08.544Z,19.39
2023-05-10T06:19:35.302Z,19.36
2023-05-10T06:22:02.663Z,19.29
2023-05-10T06:24:29.597Z,19.25
2023-05-10T06:26:56.355Z,19.20
2023-05-10T06:29:23.147Z,19.12
2023-05-10T06:31:50.053Z,19.14
2023-05-10T06:34:16.811Z,19.31
2023-05-10T06:36:44.024Z,19.34
2023-05-10T06:39:12.680Z,19.40
2023-05-10T06:41:39.460Z,19.22
2023-05-10T06:44:06.318Z,19.21
2023-05-10T06:46:33.168Z,19.22
2023-05-10T06:48:59.963Z,19.20
2023-05-10T06:51:27.150Z,19.16
2023-05-10T06:53:54.105Z,19.26
2023-05-10T06:56:22.464Z,19.36
2023-05-10T06:58:49.547Z,18.89
2023-05-10T07:01:16.534Z,18.89
2023-05-10T07:03:43.465Z,18.86
2023-05-10T07:06:21.577Z,18.74
2023-05-10T07:08:56.890Z,18.82
2023-05-10T07:11:23.668Z,18.94
2023-05-10T07:13:50.388Z,19.04
2023-05-10T07:16:17.447Z,19.23
2023-05-10T07:18:44.284Z,19.31
2023-05-10T07:21:11.415Z,19.31
2023-05-10T07:23:38.182Z,19.17
2023-05-10T07:26:05.117Z,19.11
2023-05-10T07:28:31.896Z,19.32
2023-05-10T07:30:58.703Z,19.23
2023-05-10T07:33:25.459Z,19.31
2023-05-10T07:35:52.673Z,19.50
2023-05-10T07:38:19.485Z,19.57
2023-05-10T07:40:46.223Z,19.76
2023-05-10T07:43:12.998Z,19.83
2023-05-10T07:45:39.827Z,19.79
2023-05-10T07:48:06.641Z,19.86
2023-05-10T07:50:33.452Z,19.83
2023-05-10T07:53:00.257Z,19.93
2023-05-10T07:55:27.350Z,19.91
2023-05-10T07:57:54.121Z,20.15
2023-05-10T08:00:21.682Z,20.27
2023-05-10T08:02:49.144Z,20.33
2023-05-10T08:05:16.663Z,20.52
2023-05-10T08:07:43.614Z,20.67
2023-05-10T08:10:11.972Z,20.84
2023-05-10T08:12:39.306Z,20.98
2023-05-10T08:15:07.685Z,20.84
2023-05-10T08:17:34.564Z,20.93
2023-05-10T08:20:01.434Z,21.05
2023-05-10T08:22:28.477Z,21.12
2023-05-10T08:24:55.226Z,21.11
2023-05-10T08:27:22.237Z,21.08
2023-05-10T08:29:50.496Z,21.29
2023-05-10T08:32:18.082Z,21.47
2023-05-10T08:34:44.875Z,21.60
2023-05-10T08:37:14.328Z,21.76
2023-05-10T08:39:41.454Z,21.84
2023-05-10T08:42:10.320Z,21.98
2023-05-10T08:44:38.162Z,22.17
2023-05-10T08:47:11.378Z,22.40
2023-05-10T08:49:38.634Z,22.66
2023-05-10T08:52:08.082Z,22.57
2023-05-10T08:54:35.592Z,22.41
2023-05-10T08:57:02.692Z,22.52
2023-05-10T08:59:29.898Z,22.57
2023-05-10T09:02:00.546Z,22.72
2023-05-10T09:04:27.553Z,22.64
2023-05-10T09:06:55.188Z,22.89
2023-05-10T09:09:22.795Z,22.67
2023-05-10T09:11:50.152Z,22.55
2023-05-10T09:14:18.337Z,22.52
2023-05-10T09:16:45.215Z,22.54
2023-05-10T09:19:12.179Z,22.82
2023-05-10T09:21:39.379Z,22.79
2023-05-10T09:24:09.912Z,22.64
2023-05-10T09:26:46.373Z,22.37
2023-05-10T09:29:15.176Z,22.47
2023-05-10T09:31:53.131Z,22.27
2023-05-10T09:34:22.009Z,22.23
2023-05-10T09:37:07.244Z,22.13
2023-05-10T09:39:40.427Z,22.15
2023-05-10T09:42:10.021Z,22.27
2023-05-10T09:44:37.945Z,22.30
2023-05-10T09:47:05.358Z,22.29
2023-05-10T09:49:32.272Z,22.21
2023-05-10T09:52:06.384Z,22.01
2023-05-10T09:54:34.336Z,22.01
2023-05-10T09:57:01.897Z,22.09
2023-05-10T09:59:29.816Z,21.98
2023-05-10T10:01:58.533Z,21.90
2023-05-10T10:04:25.639Z,21.97
2023-05-10T10:07:05.726Z,21.99
2023-05-10T10:09:33.672Z,22.15
2023-05-10T10:12:02.012Z,22.00
2023-05-10T10:14:30.126Z,22.22
2023-05-10T10:17:07.214Z,21.98
2023-05-10T10:19:36.762Z,22.24
2023-05-10T10:22:04.208Z,21.81
2023-05-10T10:24:31.197Z,22.01
2023-05-10T10:27:06.242Z,22.10
2023-05-10T10:29:45.827Z,22.20
2023-05-10T10:32:30.534Z,21.98
2023-05-10T10:34:58.052Z,22.00
2023-05-10T10:37:42.260Z,21.89
2023-05-10T10:40:28.245Z,21.93
2023-05-10T10:42:56.237Z,21.86
2023-05-10T10:45:25.860Z,22.02
2023-05-10T10:48:21.542Z,21.79
2023-05-10T10:50:48.327Z,21.74
2023-05-10T10:53:15.237Z,21.97
2023-05-10T10:55:49.525Z,21.99
2023-05-10T10:58:34.679Z,22.24
2023-05-10T11:01:16.478Z,22.18
2023-05-10T11:04:16.332Z,22.35
2023-05-10T11:06:43.639Z,22.58
2023-05-10T11:09:12.554Z,22.54
2023-05-10T11:11:59.360Z,22.32
2023-05-10T11:14:26.441Z,22.72
2023-05-10T11:16:53.488Z,22.76
2023-05-10T11:19:20.617Z,22.81
2023-05-10T11:21:52.914Z,22.74
2023-05-10T11:24:21.622Z,22.83
2023-05-10T11:26:51.040Z,22.57
2023-05-10T11:29:17.893Z,22.22
2023-05-10T11:31:46.463Z,22.50
2023-05-10T11:34:23.937Z,22.69
2023-05-10T11:36:54.906Z,22.55
2023-05-10T11:39:22.576Z,22.51
2023-05-10T11:41:50.531Z,22.61
2023-05-10T11:44:17.465Z,22.64
2023-05-10T11:46:44.327Z,22.47
2023-05-10T11:49:11.831Z,22.31
2023-05-10T11:51:38.541Z,22.34
2023-05-10T11:54:10.561Z,22.66
2023-05-10T11:56:38.792Z,22.58
2023-05-10T11:59:05.611Z,22.29
2023-05-10T12:01:32.778Z,22.27
2023-05-10T12:04:01.421Z,22.28
2023-05-10T12:06:30.612Z,22.25
2023-05-10T12:08:57.942Z,22.23
2023-05-10T12:11:29.501Z,22.05
2023-05-10T12:13:57.546Z,22.43
2023-05-10T12:16:29.153Z,22.44
2023-05-10T12:19:00.953Z,22.52
2023-05-10T12:21:29.398Z,22.70
2023-05-10T12:24:01.338Z,22.69
2023-05-10T12:26:29.155Z,22.74
2023-05-10T12:29:12.225Z,22.44
2023-05-10T12:31:59.726Z,22.34
2023-05-10T12:34:36.037Z,22.39
2023-05-10T12:37:04.461Z,22.55
2023-05-10T12:39:45.790Z,22.23
2023-05-10T12:42:12.948Z,22.14
2023-05-10T12:44:40.878Z,21.88
2023-05-10T12:47:07.871Z,21.71
2023-05-10T12:49:35.133Z,21.74
2023-05-10T12:52:02.264Z,21.61
2023-05-10T12:54:29.056Z,21.78
2023-05-10T12:56:55.879Z,21.50
2023-05-10T12:59:23.881Z,21.46
2023-05-10T13:01:50.786Z,21.12
2023-05-10T13:04:17.539Z,21.10
2023-05-10T13:06:44.556Z,21.20
2023-05-10T13:09:11.435Z,21.40
2023-05-10T13:11:38.509Z,21.42
2023-05-10T13:14:05.385Z,21.34
2023-05-10T13:16:32.693Z,21.19
2023-05-10T13:18:59.780Z,21.45
2023-05-10T13:21:26.825Z,21.41
2023-05-10T13:23:54.420Z,21.42
2023-05-10T13:26:21.385Z,21.41
2023-05-10T13:28:49.898Z,21.41
2023-05-10T13:31:16.844Z,21.51
2023-05-10T13:33:43.656Z,21.49
2023-05-10T13:36:10.448Z,21.50
2023-05-10T13:38:37.484Z,21.56
2023-05-10T13:41:04.465Z,21.67
2023-05-10T13:43:31.248Z,21.83
2023-05-10T13:45:58.241Z,21.83
2023-05-10T13:48:24.988Z,21.90
2023-05-10T13:50:51.748Z,21.94
2023-05-10T13:53:18.514Z,22.10
2023-05-10T13:55:45.383Z,22.13
2023-05-10T13:58:12.454Z,22.43
2023-05-10T14:00:39.339Z,22.30
2023-05-10T14:03:07.917Z,22.42
2023-05-10T14:05:34.690Z,22.17
2023-05-10T14:08:01.444Z,22.34
2023-05-10T14:10:28.248Z,21.98
2023-05-10T14:12:55.117Z,22.27
2023-05-10T14:15:22.087Z,22.13
2023-05-10T14:17:49.034Z,21.90
2023-05-10T14:20:16.096Z,21.76
2023-05-10T14:22:42.824Z,21.50
2023-05-10T14:25:10.258Z,21.81
2023-05-10T14:27:37.538Z,21.76
2023-05-10T14:30:04.656Z,21.82
2023-05-10T14:32:33.053Z,21.91
2023-05-10T14:35:00.600Z,22.20
2023-05-10T14:37:27.841Z,22.41
2023-05-10T14:39:55.053Z,22.65
2023-05-10T14:42:22.291Z,22.61
2023-05-10T14:44:49.023Z,22.74
2023-05-10T14:47:15.802Z,22.77
2023-05-10T14:49:42.504Z,22.60
2023-05-10T14:52:09.262Z,22.39
2023-05-10T14:54:36.160Z,22.31
2023-05-10T14:57:03.395Z,22.35
2023-05-10T14:59:30.182Z,22.36
2023-05-10T15:01:57.322Z,22.33
2023-05-10T15:04:25.959Z,22.32
2023-05-10T15:07:00.185Z,22.24
2023-05-10T15:09:28.560Z,22.26
2023-05-10T15:11:56.248Z,22.18
2023-05-10T15:14:23.841Z,22.36
2023-05-10T15:16:50.808Z,22.19
2023-05-10T15:19:17.721Z,22.41
2023-05-10T15:21:45.632Z,22.70
2023-05-10T15:24:12.394Z,22.81
2023-05-10T15:26:39.118Z,23.07
2023-05-10T15:29:05.888Z,23.04
2023-05-10T15:31:32.798Z,23.06
2023-05-10T15:34:02.435Z,22.89
2023-05-10T15:36:29.157Z,22.99
2023-05-10T15:38:55.929Z,22.94
2023-05-10T15:41:22.711Z,22.96
2023-05-10T15:43:49.470Z,22.87
2023-05-10T15:46:16.265Z,22.87
2023-05-10T15:48:43.543Z,22.95
2023-05-10T15:51:10.326Z,22.87
2023-05-10T15:53:37.127Z,22.99
2023-05-10T15:56:04.135Z,23.17
2023-05-10T15:58:31.059Z,23.18
2023-05-10T16:00:57.986Z,23.00
2023-05-10T16:03:24.961Z,23.02
2023-05-10T16:05:52.054Z,23.09
2023-05-10T16:08:18.738Z,23.12
2023-05-10T16:10:45.718Z,22.97
2023-05-10T16:13:12.563Z,22.75
2023-05-10T16:15:39.269Z,22.63
2023-05-10T16:18:06.220Z,22.53
2023-05-10T16:20:33.099Z,22.65
2023-05-10T16:23:05.397Z,22.51
2023-05-10T16:25:33.438Z,22.42
2023-05-10T16:28:00.880Z,22.37
2023-05-10T16:30:30.152Z,22.54
2023-05-10T16:32:58.071Z,22.41
2023-05-10T16:35:24.926Z,22.45
2023-05-10T16:37:54.559Z,22.66
2023-05-10T16:40:21.742Z,22.76
2023-05-10T16:42:48.479Z,22.60
2023-05-10T16:45:16.456Z,22.71
2023-05-10T16:47:43.488Z,22.53
2023-05-10T16:50:10.555Z,22.49
2023-05-10T16:52:37.497Z,22.48
2023-05-10T16:55:05.210Z,22.69
2023-05-10T16:57:33.032Z,22.53
2023-05-10T16:59:59.916Z,22.40
2023-05-10T17:02:26.915Z,22.69
2023-05-10T17:04:56.088Z,22.59
2023-05-10T17:07:25.405Z,22.61
2023-05-10T17:09:53.103Z,22.53
2023-05-10T17:12:19.920Z,22.54
2023-05-10T17:14:47.153Z,22.68
2023-05-10T17:17:13.894Z,22.34
2023-05-10T17:19:40.574Z,22.41
2023-05-10T17:22:07.435Z,22.09
2023-05-10T17:24:34.138Z,22.28
2023-05-10T17:27:00.997Z,22.00
2023-05-10T17:29:28.674Z,22.12
2023-05-10T17:31:55.609Z,21.94
2023-05-10T17:34:22.431Z,21.97
2023-05-10T17:36:49.286Z,22.03
2023-05-10T17:39:16.257Z,21.98
2023-05-10T17:41:43.076Z,21.81
2023-05-10T17:44:09.886Z,21.91
2023-05-10T17:46:36.860Z,21.93
2023-05-10T17:49:03.601Z,21.98
2023-05-10T17:51:30.426Z,21.87
2023-05-10T17:53:57.198Z,21.82
2023-05-10T17:56:24.486Z,21.65
2023-05-10T17:58:51.265Z,21.44
2023-05-10T18:01:18.132Z,21.61
2023-05-10T18:03:44.845Z,21.48
2023-05-10T18:06:11.685Z,21.37
2023-05-10T18:08:38.507Z,21.47
2023-05-10T18:11:05.399Z,21.47
2023-05-10T18:13:32.128Z,21.51
2023-05-10T18:15:59.454Z,21.53
2023-05-10T18:18:26.288Z,21.39
2023-05-10T18:20:58.023Z,21.28
2023-05-10T18:23:25.018Z,21.29
2023-05-10T18:25:52.116Z,21.23
2023-05-10T18:28:18.886Z,21.25
2023-05-10T18:30:45.768Z,21.18
2023-05-10T18:33:12.684Z,21.20
2023-05-10T18:35:43.812Z,20.99
2023-05-10T18:38:11.048Z,21.07
2023-05-10T18:40:37.787Z,20.96
2023-05-10T18:43:04.726Z,21.03
2023-05-10T18:45:31.656Z,21.06
2023-05-10T18:47:58.373Z,20.96
2023-05-10T18:50:25.219Z,20.91
2023-05-10T18:52:52.286Z,20.90
2023-05-10T18:55:19.877Z,20.80
2023-05-10T18:57:47.054Z,20.86
2023-05-10T19:00:16.653Z,20.87
2023-05-10T19:02:43.451Z,20.92
2023-05-10T19:05:10.508Z,20.88
2023-05-10T19:07:37.284Z,20.70
2023-05-10T19:10:04.300Z,20.60
2023-05-10T19:12:31.144Z,20.57
2023-05-10T19:14:59.245Z,20.61
2023-05-10T19:17:26.455Z,20.24
2023-05-10T19:19:54.386Z,20.25
2023-05-10T19:22:36.059Z,20.20
2023-05-10T19:25:09.198Z,20.22
2023-05-10T19:27:36.673Z,20.22
2023-05-10T19:30:03.648Z,20.13
2023-05-10T19:32:30.406Z,20.20
2023-05-10T19:34:57.156Z,20.09
2023-05-10T19:37:25.683Z,20.13
2023-05-10T19:39:52.382Z,20.13
2023-05-10T19:42:20.648Z,20.17
2023-05-10T19:44:48.067Z,20.14
2023-05-10T19:47:15.141Z,20.12
2023-05-10T19:49:42.146Z,20.10
2023-05-10T19:52:10.591Z,20.03
2023-05-10T19:54:38.184Z,20.06
2023-05-10T19:57:04.938Z,20.04
2023-05-10T19:59:31.627Z,19.90
2023-05-10T20:01:58.352Z,20.02
2023-05-10T20:04:25.167Z,19.92
2023-05-10T20:06:51.847Z,19.96
2023-05-10T20:09:18.602Z,19.98
2023-05-10T20:11:45.379Z,20.00
2023-05-10T20:14:12.165Z,20.05
2023-05-10T20:16:38.993Z,20.07
2023-05-10T20:19:06.147Z,20.06
2023-05-10T20:21:33.572Z,20.06
2023-05-10T20:24:00.321Z,20.11
2023-05-10T20:26:27.123Z,20.08
2023-05-10T20:28:53.980Z,20.12
2023-05-10T20:31:20.801Z,20.10
2023-05-10T20:33:47.554Z,20.12
2023-05-10T20:36:15.000Z,20.16
2023-05-10T20:38:41.878Z,20.11
2023-05-10T20:41:08.662Z,20.14
2023-05-10T20:43:35.772Z,20.13
2023-05-10T20:46:05.434Z,20.14
2023-05-10T20:48:33.115Z,20.14
2023-05-10T20:51:02.514Z,20.11
2023-05-10T20:53:29.576Z,20.00
2023-05-10T20:55:56.429Z,19.97
2023-05-10T20:58:23.151Z,19.98
2023-05-10T21:00:49.896Z,20.00
2023-05-10T21:03:16.743Z,20.01
2023-05-10T21:05:43.520Z,20.03
2023-05-10T21:08:10.453Z,19.92
2023-05-10T21:10:37.153Z,20.05
2023-05-10T21:13:03.989Z,19.99
2023-05-10T21:15:30.762Z,19.92
2023-05-10T21:17:58.496Z,19.95
2023-05-10T21:20:25.377Z,19.97
2023-05-10T21:22:52.191Z,19.95
2023-05-10T21:25:19.144Z,19.83
2023-05-10T21:27:46.039Z,19.88
2023-05-10T21:30:12.952Z,19.88
2023-05-10T21:32:39.893Z,19.89
2023-05-10T21:35:07.302Z,19.90
2023-05-10T21:37:34.169Z,19.91
2023-05-10T21:40:01.196Z,19.90
2023-05-10T21:42:28.008Z,19.78
2023-05-10T21:44:54.862Z,19.84
2023-05-10T21:47:21.808Z,19.84
2023-05-10T21:49:48.546Z,19.86
2023-05-10T21:52:15.303Z,19.86
2023-05-10T21:54:42.094Z,19.86
2023-05-10T21:57:08.835Z,19.88
2023-05-10T21:59:35.666Z,19.88
2023-05-10T22:02:02.508Z,19.84
2023-05-10T22:04:29.268Z,19.83
2023-05-10T22:06:56.061Z,19.86
2023-05-10T22:09:24.353Z,19.86
2023-05-10T22:11:51.339Z,19.88
2023-05-10T22:14:18.141Z,19.88
2023-05-10T22:16:44.889Z,19.84
2023-05-10T22:19:11.730Z,19.86
2023-05-10T22:21:38.464Z,19.80
2023-05-10T22:24:05.372Z,19.74
2023-05-10T22:26:32.226Z,19.76
2023-05-10T22:28:58.946Z,19.80
2023-05-10T22:31:26.701Z,19.79
2023-05-10T22:33:53.535Z,19.78
2023-05-10T22:36:20.415Z,19.79
2023-05-10T22:38:47.277Z,19.79
2023-05-10T22:41:14.005Z,19.80
2023-05-10T22:43:40.794Z,19.80
2023-05-10T22:46:07.609Z,19.82
2023-05-10T22:48:35.673Z,19.80
2023-05-10T22:51:02.418Z,19.84
2023-05-10T22:53:29.192Z,19.81
2023-05-10T22:55:56.242Z,19.82
2023-05-10T22:58:23.108Z,19.82
2023-05-10T23:00:49.958Z,19.84
2023-05-10T23:03:18.099Z,19.83
2023-05-10T23:05:44.871Z,19.82
2023-05-10T23:08:11.715Z,19.84
2023-05-10T23:10:39.098Z,19.83
2023-05-10T23:13:06.348Z,19.86
2023-05-10T23:15:33.208Z,19.89
2023-05-10T23:18:03.064Z,19.89
2023-05-10T23:20:29.931Z,19.90
2023-05-10T23:22:56.772Z,19.89
2023-05-10T23:25:23.530Z,19.96
2023-05-10T23:27:50.256Z,19.92
2023-05-10T23:30:17.297Z,19.94
2023-05-10T23:32:44.258Z,19.94
2023-05-10T23:35:11.245Z,19.95
2023-05-10T23:37:38.098Z,19.95
2023-05-10T23:40:05.508Z,19.95
2023-05-10T23:42:32.702Z,19.94
2023-05-10T23:44:59.546Z,19.85
2023-05-10T23:47:26.654Z,19.82
2023-05-10T23:49:53.533Z,19.84
2023-05-10T23:52:24.911Z,19.85
2023-05-10T23:54:52.185Z,19.83
2023-05-10T23:57:19.385Z,19.82
2023-05-10T23:59:46.590Z,19.80
